createdAt,value
2022-10-01T00:02:08.183Z,5.73
2022-10-01T00:04:37.388Z,7.53
2022-10-01T00:07:09.399Z,7.17
2022-10-01T00:09:37.124Z,6.20
2022-10-01T00:12:04.691Z,6.70
2022-10-01T00:14:32.695Z,5.50
2022-10-01T00:17:00.422Z,5.43
2022-10-01T00:19:28.128Z,7.53
2022-10-01T00:21:55.719Z,7.27
2022-10-01T00:24:23.785Z,6.10
2022-10-01T00:26:51.361Z,6.67
2022-10-01T00:29:18.968Z,6.30
2022-10-01T00:31:46.565Z,6.87
2022-10-01T00:34:15.417Z,6.90
2022-10-01T00:36:43.028Z,6.27
2022-10-01T00:39:12.154Z,7.67
2022-10-01T00:41:39.825Z,7.90
2022-10-01T00:44:32.091Z,5.70
2022-10-01T00:47:19.959Z,5.53
2022-10-01T00:49:50.666Z,5.77
2022-10-01T00:52:23.641Z,6.30
2022-10-01T00:54:57.017Z,6.87
2022-10-01T00:57:27.099Z,8.13
2022-10-01T00:59:57.064Z,5.23
2022-10-01T01:02:24.741Z,6.27
2022-10-01T01:04:55.471Z,5.90
2022-10-01T01:07:23.301Z,5.93
2022-10-01T01:09:53.416Z,7.90
2022-10-01T01:12:26.699Z,6.00
2022-10-01T01:15:15.177Z,6.60
2022-10-01T01:18:27.586Z,6.00
2022-10-01T01:21:13.006Z,6.10
2022-10-01T01:24:02.255Z,7.40
2022-10-01T01:26:32.662Z,6.03
2022-10-01T01:29:08.432Z,5.93
2022-10-01T01:31:41.315Z,6.80
2022-10-01T01:34:13.020Z,5.77
2022-10-01T01:36:49.990Z,5.40
2022-10-01T01:39:19.541Z,6.93
2022-10-01T01:41:51.159Z,7.53
2022-10-01T01:44:25.796Z,8.43
2022-10-01T01:46:56.721Z,5.63
2022-10-01T01:49:24.776Z,7.10
2022-10-01T01:52:15.808Z,5.87
2022-10-01T01:54:48.119Z,9.93
2022-10-01T01:57:20.198Z,5.47
2022-10-01T01:59:48.011Z,5.83
2022-10-01T02:02:23.420Z,6.93
2022-10-01T02:04:57.670Z,5.97
2022-10-01T02:07:28.345Z,6.77
2022-10-01T02:10:25.145Z,8.53
2022-10-01T02:13:16.746Z,6.77
2022-10-01T02:16:15.020Z,6.83
2022-10-01T02:18:55.416Z,6.80
2022-10-01T02:21:25.876Z,7.30
2022-10-01T02:24:06.344Z,6.10
2022-10-01T02:26:37.447Z,7.63
2022-10-01T02:29:09.708Z,6.70
2022-10-01T02:31:37.681Z,6.93
2022-10-01T02:34:12.430Z,8.53
2022-10-01T02:36:42.528Z,6.87
2022-10-01T02:39:12.719Z,6.50
2022-10-01T02:41:44.906Z,6.20
2022-10-01T02:44:23.317Z,7.27
2022-10-01T02:47:07.610Z,7.40
2022-10-01T02:49:37.077Z,7.30
2022-10-01T02:52:09.823Z,7.50
2022-10-01T02:54:46.791Z,8.77
2022-10-01T02:57:28.908Z,9.03
2022-10-01T03:00:08.902Z,6.63
2022-10-01T03:02:36.558Z,6.17
2022-10-01T03:05:05.054Z,8.27
2022-10-01T03:07:37.950Z,6.60
2022-10-01T03:10:06.882Z,6.83
2022-10-01T03:12:37.680Z,8.40
2022-10-01T03:15:05.547Z,7.43
2022-10-01T03:17:33.206Z,7.47
2022-10-01T03:20:00.897Z,7.77
2022-10-01T03:22:28.467Z,7.77
2022-10-01T03:24:56.061Z,9.27
2022-10-01T03:27:23.810Z,7.80
2022-10-01T03:29:51.368Z,7.00
2022-10-01T03:32:19.453Z,7.20
2022-10-01T03:34:47.648Z,8.17
2022-10-01T03:37:24.796Z,7.80
2022-10-01T03:39:52.347Z,8.73
2022-10-01T03:42:19.904Z,7.70
2022-10-01T03:44:48.489Z,8.90
2022-10-01T03:47:16.012Z,8.43
2022-10-01T03:49:43.575Z,7.53
2022-10-01T03:52:11.103Z,8.43
2022-10-01T03:54:39.336Z,9.47
2022-10-01T03:57:06.927Z,9.33
2022-10-01T03:59:35.985Z,8.27
2022-10-01T04:02:03.725Z,8.30
2022-10-01T04:04:31.383Z,10.07
2022-10-01T04:06:58.941Z,10.23
2022-10-01T04:09:26.475Z,8.80
2022-10-01T04:11:54.347Z,8.30
2022-10-01T04:14:22.131Z,11.17
2022-10-01T04:16:52.327Z,8.90
2022-10-01T04:19:20.398Z,8.77
2022-10-01T04:21:47.990Z,8.93
2022-10-01T04:24:15.544Z,8.50
2022-10-01T04:26:43.083Z,10.10
2022-10-01T04:29:10.681Z,10.37
2022-10-01T04:31:38.789Z,9.87
2022-10-01T04:34:06.664Z,10.83
2022-10-01T04:36:34.639Z,9.90
2022-10-01T04:39:03.042Z,10.97
2022-10-01T04:41:32.012Z,9.53
2022-10-01T04:44:00.527Z,9.13
2022-10-01T04:46:31.367Z,9.13
2022-10-01T04:48:58.982Z,10.43
2022-10-01T04:51:26.528Z,9.20
2022-10-01T04:53:54.098Z,9.00
2022-10-01T04:56:21.695Z,8.43
2022-10-01T04:58:49.255Z,9.37
2022-10-01T05:01:16.871Z,8.63
2022-10-01T05:03:44.470Z,11.73
2022-10-01T05:06:12.019Z,9.13
2022-10-01T05:08:39.830Z,11.20
2022-10-01T05:11:07.363Z,9.27
2022-10-01T05:13:35.024Z,10.17
2022-10-01T05:16:03.703Z,10.50
2022-10-01T05:18:32.350Z,12.30
2022-10-01T05:21:03.976Z,10.63
2022-10-01T05:23:32.146Z,8.97
2022-10-01T05:26:00.817Z,8.53
2022-10-01T05:28:28.425Z,7.53
2022-10-01T05:30:58.684Z,8.70
2022-10-01T05:33:27.202Z,8.93
2022-10-01T05:35:55.533Z,7.60
2022-10-01T05:38:23.444Z,11.43
2022-10-01T05:40:50.996Z,9.73
2022-10-01T05:43:21.310Z,6.80
2022-10-01T05:45:49.622Z,5.63
2022-10-01T05:48:17.236Z,6.13
2022-10-01T05:50:46.542Z,4.77
2022-10-01T05:53:16.053Z,4.27
2022-10-01T05:55:44.059Z,4.30
2022-10-01T05:58:13.907Z,3.90
2022-10-01T06:00:42.940Z,3.60
2022-10-01T06:03:15.185Z,4.20
2022-10-01T06:05:44.570Z,3.70
2022-10-01T06:08:13.222Z,4.53
2022-10-01T06:10:41.076Z,3.70
2022-10-01T06:13:08.676Z,3.90
2022-10-01T06:15:38.347Z,2.70
2022-10-01T06:18:08.608Z,3.73
2022-10-01T06:20:36.775Z,3.07
2022-10-01T06:23:07.265Z,3.20
2022-10-01T06:25:36.388Z,3.23
2022-10-01T06:28:05.936Z,3.47
2022-10-01T06:30:36.188Z,2.40
2022-10-01T06:33:14.984Z,3.87
2022-10-01T06:35:45.545Z,2.93
2022-10-01T06:38:13.910Z,2.70
2022-10-01T06:40:41.765Z,2.77
2022-10-01T06:43:09.733Z,2.80
2022-10-01T06:45:41.172Z,3.40
2022-10-01T06:48:14.536Z,2.40
2022-10-01T06:50:44.086Z,6.97
2022-10-01T06:53:13.007Z,2.23
2022-10-01T06:55:41.137Z,3.37
2022-10-01T06:58:16.219Z,4.23
2022-10-01T07:00:44.663Z,2.47
2022-10-01T07:03:15.724Z,2.53
2022-10-01T07:05:43.279Z,2.10
2022-10-01T07:08:11.208Z,2.93
2022-10-01T07:10:39.969Z,1.60
2022-10-01T07:13:14.892Z,2.00
2022-10-01T07:15:43.315Z,2.00
2022-10-01T07:18:11.602Z,1.50
2022-10-01T07:20:40.389Z,1.53
2022-10-01T07:23:11.813Z,2.00
2022-10-01T07:25:40.693Z,1.23
2022-10-01T07:28:18.906Z,1.43
2022-10-01T07:31:11.189Z,1.50
2022-10-01T07:33:39.283Z,1.30
2022-10-01T07:36:08.781Z,2.13
2022-10-01T07:38:36.350Z,1.83
2022-10-01T07:41:04.645Z,1.30
2022-10-01T07:43:34.649Z,2.07
2022-10-01T07:46:07.116Z,0.89
2022-10-01T07:48:34.985Z,1.40
2022-10-01T07:51:02.517Z,1.27
2022-10-01T07:53:30.098Z,2.20
2022-10-01T07:56:01.438Z,2.90
2022-10-01T07:58:29.224Z,1.10
2022-10-01T08:00:58.750Z,1.57
2022-10-01T08:03:27.775Z,1.30
2022-10-01T08:05:55.527Z,1.20
2022-10-01T08:08:23.273Z,1.30
2022-10-01T08:10:50.955Z,1.30
2022-10-01T08:13:18.889Z,0.90
2022-10-01T08:15:50.465Z,1.07
2022-10-01T08:18:18.079Z,2.13
2022-10-01T08:20:46.198Z,1.43
2022-10-01T08:23:16.117Z,1.23
2022-10-01T08:25:44.538Z,1.70
2022-10-01T08:28:12.773Z,1.20
2022-10-01T08:30:41.831Z,0.70
2022-10-01T08:33:13.459Z,1.10
2022-10-01T08:35:43.384Z,1.10
2022-10-01T08:41:13.891Z,2.13
2022-10-01T08:43:42.268Z,1.10
2022-10-01T08:46:20.877Z,1.23
2022-10-01T08:48:56.851Z,0.87
2022-10-01T08:51:27.835Z,1.77
2022-10-01T08:54:13.082Z,0.80
2022-10-01T08:56:46.273Z,1.17
2022-10-01T08:59:40.588Z,1.20
2022-10-01T09:02:37.865Z,2.00
2022-10-01T09:05:16.532Z,0.83
2022-10-01T09:08:09.479Z,0.97
2022-10-01T09:10:47.670Z,1.10
2022-10-01T09:13:30.373Z,1.77
2022-10-01T09:16:04.011Z,1.57
2022-10-01T09:18:50.319Z,0.90
2022-10-01T09:21:36.834Z,1.10
2022-10-01T09:24:12.586Z,1.20
2022-10-01T09:26:45.965Z,1.53
2022-10-01T09:29:28.471Z,1.30
2022-10-01T09:31:58.721Z,0.90
2022-10-01T09:34:37.968Z,1.33
2022-10-01T09:37:14.777Z,2.80
2022-10-01T09:39:44.978Z,1.33
2022-10-01T09:42:13.172Z,1.23
2022-10-01T09:44:42.693Z,1.77
2022-10-01T09:47:18.720Z,1.17
2022-10-01T09:49:47.848Z,1.50
2022-10-01T09:52:36.268Z,1.00
2022-10-01T09:55:32.413Z,1.53
2022-10-01T09:58:06.614Z,1.70
2022-10-01T10:00:35.905Z,1.03
2022-10-01T10:03:03.924Z,1.00
2022-10-01T10:05:44.814Z,0.70
2022-10-01T10:08:31.215Z,2.87
2022-10-01T10:11:01.582Z,0.60
2022-10-01T10:13:39.106Z,1.17
2022-10-01T10:16:14.209Z,2.43
2022-10-01T10:18:42.244Z,0.70
2022-10-01T10:21:16.442Z,0.90
2022-10-01T10:23:59.422Z,1.60
2022-10-01T10:26:32.503Z,1.10
2022-10-01T10:29:05.046Z,0.97
2022-10-01T10:31:43.158Z,1.47
2022-10-01T10:34:16.290Z,0.97
2022-10-01T10:36:46.918Z,0.90
2022-10-01T10:39:26.101Z,1.97
2022-10-01T10:41:56.035Z,1.20
2022-10-01T10:44:27.238Z,1.80
2022-10-01T10:47:00.787Z,3.10
2022-10-01T10:49:31.484Z,2.70
2022-10-01T10:52:01.144Z,2.80
2022-10-01T10:54:32.673Z,0.60
2022-10-01T10:57:18.381Z,3.27
2022-10-01T11:00:02.683Z,1.37
2022-10-01T11:02:32.280Z,0.43
2022-10-01T11:05:16.911Z,0.63
2022-10-01T11:07:46.369Z,0.60
2022-10-01T11:10:32.530Z,0.60
2022-10-01T11:13:20.309Z,1.03
2022-10-01T11:15:54.147Z,0.90
2022-10-01T11:19:01.374Z,5.23
2022-10-01T11:21:28.912Z,0.87
2022-10-01T11:24:02.832Z,0.63
2022-10-01T11:26:42.206Z,0.60
2022-10-01T11:29:46.737Z,0.87
2022-10-01T11:32:34.054Z,0.80
2022-10-01T11:35:10.790Z,0.73
2022-10-01T11:37:47.755Z,0.97
2022-10-01T11:40:40.497Z,1.17
2022-10-01T11:43:39.135Z,1.90
2022-10-01T11:46:16.229Z,0.53
2022-10-01T11:48:52.310Z,0.93
2022-10-01T11:51:24.156Z,2.03
2022-10-01T11:54:00.638Z,0.57
2022-10-01T11:56:50.334Z,2.00
2022-10-01T11:59:36.767Z,2.53
2022-10-01T12:02:15.379Z,0.50
2022-10-01T12:04:58.060Z,1.13
2022-10-01T12:07:42.578Z,0.97
2022-10-01T12:11:07.424Z,0.90
2022-10-01T12:13:44.356Z,1.17
2022-10-01T12:16:26.395Z,2.00
2022-10-01T12:19:25.039Z,3.80
2022-10-01T12:22:01.564Z,2.77
2022-10-01T12:24:36.112Z,0.60
2022-10-01T12:27:25.841Z,1.75
2022-10-01T12:30:05.211Z,0.77
2022-10-01T12:32:47.634Z,0.90
2022-10-01T12:35:49.488Z,0.95
2022-10-01T12:38:51.938Z,0.98
2022-10-01T12:41:35.800Z,1.02
2022-10-01T12:44:21.418Z,1.48
2022-10-01T12:46:57.971Z,1.80
2022-10-01T12:49:46.637Z,0.85
2022-10-01T12:52:35.624Z,0.93
2022-10-01T12:55:26.492Z,1.00
2022-10-01T12:58:20.302Z,0.68
2022-10-01T13:01:00.318Z,0.63
2022-10-01T13:04:05.149Z,1.15
2022-10-01T13:06:35.751Z,1.38
2022-10-01T13:09:23.116Z,2.22
2022-10-01T13:12:02.984Z,1.73
2022-10-01T13:14:33.106Z,0.73
2022-10-01T13:17:26.227Z,1.63
2022-10-01T13:19:58.072Z,1.58
2022-10-01T13:22:28.753Z,2.03
2022-10-01T13:28:18.808Z,1.17
2022-10-01T13:31:00.416Z,2.40
2022-10-01T13:33:31.501Z,2.80
2022-10-01T13:36:01.368Z,2.70
2022-10-01T13:38:38.385Z,2.97
2022-10-01T13:41:30.916Z,2.28
2022-10-01T13:44:23.832Z,2.97
2022-10-01T13:47:06.947Z,1.15
2022-10-01T13:49:39.800Z,0.70
2022-10-01T13:52:07.395Z,1.08
2022-10-01T13:54:56.093Z,1.15
2022-10-01T13:57:36.971Z,1.58
2022-10-01T14:00:18.636Z,1.05
2022-10-01T14:03:24.019Z,1.33
2022-10-01T14:05:57.761Z,1.27
2022-10-01T14:09:00.493Z,0.70
2022-10-01T14:11:51.447Z,1.15
2022-10-01T14:14:58.307Z,1.00
2022-10-01T14:17:29.133Z,2.35
2022-10-01T14:19:58.022Z,1.50
2022-10-01T14:22:43.452Z,2.10
2022-10-01T14:25:36.956Z,1.63
2022-10-01T14:28:39.503Z,3.40
2022-10-01T14:31:18.025Z,3.47
2022-10-01T14:34:20.202Z,4.33
2022-10-01T14:36:49.640Z,3.67
2022-10-01T14:39:26.231Z,2.80
2022-10-01T14:41:55.645Z,4.63
2022-10-01T14:44:37.392Z,3.27
2022-10-01T14:47:23.585Z,5.30
2022-10-01T14:49:53.961Z,3.97
2022-10-01T14:52:26.449Z,1.97
2022-10-01T14:54:56.804Z,5.40
2022-10-01T14:57:36.195Z,5.17
2022-10-01T15:00:28.045Z,5.97
2022-10-01T15:03:03.476Z,4.33
2022-10-01T15:05:33.414Z,2.33
2022-10-01T15:08:16.114Z,4.37
2022-10-01T15:11:01.375Z,3.23
2022-10-01T15:13:35.797Z,3.97
2022-10-01T15:16:03.729Z,2.63
2022-10-01T15:18:32.027Z,3.77
2022-10-01T15:21:06.314Z,4.97
2022-10-01T15:23:36.824Z,3.80
2022-10-01T15:26:09.306Z,2.40
2022-10-01T15:28:37.570Z,3.40
2022-10-01T15:31:06.864Z,2.67
2022-10-01T15:33:37.547Z,3.50
2022-10-01T15:36:08.350Z,1.98
2022-10-01T15:38:36.469Z,4.18
2022-10-01T15:41:29.919Z,4.03
2022-10-01T15:43:53.803Z,3.78
2022-10-01T15:46:25.313Z,5.55
2022-10-01T15:49:23.967Z,5.70
2022-10-01T15:52:13.426Z,3.40
2022-10-01T15:54:44.700Z,5.43
2022-10-01T15:57:20.178Z,4.97
2022-10-01T15:59:49.992Z,6.47
2022-10-01T16:02:24.426Z,5.45
2022-10-01T16:04:55.945Z,5.53
2022-10-01T16:07:30.203Z,9.55
2022-10-01T16:10:00.046Z,5.38
2022-10-01T16:12:29.277Z,5.35
2022-10-01T16:15:00.627Z,6.03
2022-10-01T16:17:29.687Z,3.87
2022-10-01T16:20:15.004Z,5.43
2022-10-01T16:22:43.446Z,5.43
2022-10-01T16:25:31.927Z,5.37
2022-10-01T16:28:17.331Z,3.60
2022-10-01T16:30:51.171Z,4.13
2022-10-01T16:33:18.715Z,3.87
2022-10-01T16:35:48.538Z,3.97
2022-10-01T16:38:16.479Z,3.43
2022-10-01T16:40:47.854Z,4.63
2022-10-01T16:43:19.656Z,6.57
2022-10-01T16:45:47.320Z,4.17
2022-10-01T16:48:19.434Z,3.30
2022-10-01T16:50:49.421Z,3.70
2022-10-01T16:53:18.600Z,5.00
2022-10-01T16:55:47.140Z,3.20
2022-10-01T16:58:15.601Z,4.03
2022-10-01T17:00:43.600Z,4.67
2022-10-01T17:03:19.320Z,3.63
2022-10-01T17:05:47.203Z,4.53
2022-10-01T17:08:15.700Z,3.07
2022-10-01T17:10:46.874Z,2.93
2022-10-01T17:13:15.588Z,3.10
2022-10-01T17:15:48.362Z,3.67
2022-10-01T17:18:17.905Z,6.93
2022-10-01T17:20:46.042Z,4.13
2022-10-01T17:23:18.635Z,4.17
2022-10-01T17:25:46.810Z,7.87
2022-10-01T17:28:17.533Z,5.20
2022-10-01T17:30:47.949Z,5.50
2022-10-01T17:33:21.101Z,6.97
2022-10-01T17:35:51.808Z,4.97
2022-10-01T17:38:20.967Z,6.80
2022-10-01T17:40:56.322Z,4.50
2022-10-01T17:43:27.282Z,5.33
2022-10-01T17:46:00.648Z,4.20
2022-10-01T17:48:31.422Z,5.87
2022-10-01T17:51:07.988Z,3.63
2022-10-01T17:53:42.507Z,5.93
2022-10-01T17:56:22.513Z,4.93
2022-10-01T17:58:52.529Z,4.93
2022-10-01T18:01:22.163Z,5.73
2022-10-01T18:04:00.150Z,5.43
2022-10-01T18:06:29.815Z,4.03
2022-10-01T18:08:57.682Z,7.23
2022-10-01T18:11:27.945Z,5.33
2022-10-01T18:13:55.874Z,4.40
2022-10-01T18:16:24.806Z,4.13
2022-10-01T18:21:45.079Z,3.13
2022-10-01T18:24:13.199Z,5.00
2022-10-01T18:26:40.911Z,1.57
2022-10-01T18:29:11.364Z,7.40
2022-10-01T18:31:40.979Z,5.30
2022-10-01T18:34:38.282Z,5.23
2022-10-01T18:37:29.949Z,5.50
2022-10-01T18:40:26.369Z,6.20
2022-10-01T18:43:24.611Z,4.93
2022-10-01T18:46:28.629Z,7.30
2022-10-01T18:49:01.733Z,3.27
2022-10-01T18:52:23.677Z,3.00
2022-10-01T18:55:03.044Z,5.37
2022-10-01T18:57:39.376Z,5.37
2022-10-01T19:00:17.994Z,3.07
2022-10-01T19:03:03.730Z,6.07
2022-10-01T19:05:52.462Z,6.53
2022-10-01T19:08:49.282Z,6.57
2022-10-01T19:11:26.005Z,6.60
2022-10-01T19:13:59.545Z,3.20
2022-10-01T19:16:42.211Z,3.00
2022-10-01T19:19:24.524Z,5.63
2022-10-01T19:22:00.321Z,7.77
2022-10-01T19:24:30.630Z,7.10
2022-10-01T19:27:04.425Z,4.07
2022-10-01T19:29:50.085Z,4.83
2022-10-01T19:32:28.574Z,3.70
2022-10-01T19:35:00.429Z,4.00
2022-10-01T19:37:33.721Z,6.90
2022-10-01T19:40:14.483Z,8.10
2022-10-01T19:42:46.270Z,5.23
2022-10-01T19:45:33.031Z,7.60
2022-10-01T19:48:11.634Z,9.50
2022-10-01T19:50:43.314Z,7.23
2022-10-01T19:53:21.440Z,6.33
2022-10-01T19:55:51.958Z,6.70
2022-10-01T19:58:21.453Z,7.50
2022-10-01T20:00:55.019Z,4.20
2022-10-01T20:03:47.178Z,4.83
2022-10-01T20:06:37.263Z,5.97
2022-10-01T20:09:27.999Z,5.83
2022-10-01T20:12:17.624Z,3.53
2022-10-01T20:15:09.488Z,7.00
2022-10-01T20:17:53.542Z,8.93
2022-10-01T20:20:24.240Z,4.83
2022-10-01T20:23:23.240Z,5.90
2022-10-01T20:26:16.828Z,9.27
2022-10-01T20:29:11.340Z,5.33
2022-10-01T20:31:48.268Z,7.37
2022-10-01T20:34:15.871Z,4.57
2022-10-01T20:36:58.362Z,6.33
2022-10-01T20:39:34.096Z,6.33
2022-10-01T20:42:03.581Z,6.00
2022-10-01T20:44:37.939Z,6.47
2022-10-01T20:47:17.618Z,4.17
2022-10-01T20:50:09.574Z,5.73
2022-10-01T20:53:04.062Z,10.40
2022-10-01T20:55:48.548Z,10.63
2022-10-01T20:58:25.610Z,6.37
2022-10-01T21:00:59.720Z,6.77
2022-10-01T21:03:36.194Z,7.63
2022-10-01T21:06:11.683Z,7.47
2022-10-01T21:09:02.135Z,6.23
2022-10-01T21:11:45.427Z,7.97
2022-10-01T21:14:37.992Z,7.77
2022-10-01T21:17:08.436Z,4.00
2022-10-01T21:19:51.339Z,4.97
2022-10-01T21:22:42.922Z,4.30
2022-10-01T21:25:24.835Z,5.73
2022-10-01T21:28:11.190Z,4.03
2022-10-01T21:30:52.977Z,7.23
2022-10-01T21:33:33.951Z,8.97
2022-10-01T21:36:19.448Z,11.83
2022-10-01T21:39:00.011Z,7.13
2022-10-01T21:41:34.932Z,7.03
2022-10-01T21:44:38.126Z,6.87
2022-10-01T21:47:09.735Z,5.83
2022-10-01T21:49:46.740Z,7.70
2022-10-01T21:52:26.876Z,7.83
2022-10-01T21:55:04.738Z,9.77
2022-10-01T21:57:43.145Z,9.60
2022-10-01T22:00:22.333Z,8.17
2022-10-01T22:03:08.630Z,7.70
2022-10-01T22:06:03.085Z,7.20
2022-10-01T22:08:47.697Z,6.80
2022-10-01T22:11:26.115Z,7.60
2022-10-01T22:13:58.948Z,11.20
2022-10-01T22:16:38.021Z,9.50
2022-10-01T22:19:11.717Z,8.60
2022-10-01T22:21:44.696Z,8.47
2022-10-01T22:24:24.772Z,9.47
2022-10-01T22:27:06.732Z,10.27
2022-10-01T22:29:40.318Z,10.57
2022-10-01T22:32:11.724Z,9.57
2022-10-01T22:34:43.869Z,10.63
2022-10-01T22:37:19.807Z,9.77
2022-10-01T22:40:13.312Z,11.93
2022-10-01T22:42:46.604Z,10.00
2022-10-01T22:45:17.543Z,10.93
2022-10-01T22:47:57.931Z,11.13
2022-10-01T22:50:36.458Z,13.00
2022-10-01T22:53:13.725Z,8.57
2022-10-01T22:55:52.565Z,10.73
2022-10-01T22:58:47.217Z,9.07
2022-10-01T23:01:27.171Z,12.30
2022-10-01T23:04:30.924Z,12.03
2022-10-01T23:07:10.037Z,8.90
2022-10-01T23:10:08.954Z,11.00
2022-10-01T23:12:36.541Z,11.03
2022-10-01T23:15:22.882Z,9.03
2022-10-01T23:18:05.541Z,8.87
2022-10-01T23:21:09.385Z,6.37
2022-10-01T23:23:37.086Z,10.57
2022-10-01T23:26:21.028Z,10.97
2022-10-01T23:29:01.125Z,14.53
2022-10-01T23:31:41.294Z,13.03
2022-10-01T23:34:33.126Z,13.40
2022-10-01T23:37:25.284Z,8.50
2022-10-01T23:40:03.917Z,11.83
2022-10-01T23:42:55.375Z,14.27
2022-10-01T23:45:29.229Z,9.23
2022-10-01T23:48:01.693Z,12.33
2022-10-01T23:50:37.922Z,9.80
2022-10-01T23:53:20.963Z,11.37
2022-10-01T23:56:15.700Z,9.57
2022-10-01T23:58:53.427Z,8.23
